Time;durP1;ratioP1;P1;durP2;ratioP2;P2;SDS_P1;SDS_P2;PMS_P1;PMS_P2;Temp;Humidity;BMP_temperature;BMP_pressure;BME280_temperature;BME280_humidity;BME280_pressure;Samples;Min_cycle;Max_cycle;Signal;HPM_P1;HPM_P2
2023/06/19 00:00:58;;;;;;;10.17;9.13;;;;;;;24.22;68.46;97707.03;4194190;28;20694;-81
2023/06/19 00:03:01;;;;;;;10.17;9.27;;;;;;;24.18;68.23;97701.28;4198134;28;20692;-81
2023/06/19 00:05:05;;;;;;;9.37;8.37;;;;;;;24.17;69.10;97704.13;4183111;28;21062;-81
2023/06/19 00:07:08;;;;;;;9.50;8.60;;;;;;;24.15;68.58;97703.53;4184786;28;20655;-81
2023/06/19 00:09:11;;;;;;;9.80;8.80;;;;;;;24.11;70.10;97699.59;4200719;28;20796;-81
2023/06/19 00:11:15;;;;;;;10.37;9.30;;;;;;;24.09;68.72;97706.16;4199587;28;21516;-81
2023/06/19 00:13:18;;;;;;;10.77;9.67;;;;;;;24.07;69.04;97713.50;4185275;28;20620;-81
2023/06/19 00:15:23;;;;;;;10.03;8.90;;;;;;;24.06;68.75;97707.38;4194752;28;20987;-81
2023/06/19 00:17:27;;;;;;;11.07;9.90;;;;;;;24.03;69.88;97713.09;4191153;28;21290;-81
2023/06/19 00:19:30;;;;;;;9.83;8.93;;;;;;;24.00;68.88;97718.00;4190056;28;22182;-81
2023/06/19 00:21:33;;;;;;;9.73;8.83;;;;;;;23.97;69.01;97705.06;4176635;28;21199;-81
2023/06/19 00:23:37;;;;;;;10.10;9.10;;;;;;;23.93;68.85;97711.81;4183779;28;20640;-81
2023/06/19 00:25:41;;;;;;;10.07;8.97;;;;;;;23.88;69.69;97711.59;4190607;28;21259;-81
2023/06/19 00:27:44;;;;;;;10.60;9.50;;;;;;;23.86;69.74;97710.94;4191994;28;20634;-81
2023/06/19 00:29:47;;;;;;;9.47;8.43;;;;;;;23.82;69.37;97715.03;4189289;28;20773;-81
2023/06/19 00:31:52;;;;;;;10.97;9.10;;;;;;;23.76;69.98;97716.63;4177873;28;20737;-80
2023/06/19 00:33:55;;;;;;;9.60;8.40;;;;;;;23.75;70.17;97714.16;4186630;28;21238;-81
2023/06/19 00:36:01;;;;;;;10.20;9.10;;;;;;;23.72;70.12;97719.88;4192666;28;20631;-81
2023/06/19 00:38:06;;;;;;;9.83;8.83;;;;;;;23.69;69.24;97720.25;4184170;28;20658;-81
2023/06/19 00:40:13;;;;;;;10.03;9.07;;;;;;;23.67;69.59;97720.44;4169801;28;20717;-81
2023/06/19 00:42:17;;;;;;;12.03;9.47;;;;;;;23.64;70.49;97724.53;4178633;28;21185;-81
2023/06/19 00:44:20;;;;;;;9.67;8.70;;;;;;;23.56;70.55;97720.16;4203664;28;20638;-81
2023/06/19 00:46:23;;;;;;;9.80;8.90;;;;;;;23.48;70.68;97716.78;4199696;28;20635;-81
2023/06/19 00:48:29;;;;;;;9.83;8.83;;;;;;;23.45;70.63;97719.84;4186991;28;20634;-81
2023/06/19 00:50:33;;;;;;;9.60;8.70;;;;;;;23.41;71.13;97715.91;4202032;28;20647;-81
2023/06/19 00:52:37;;;;;;;11.60;9.83;;;;;;;23.40;71.19;97719.63;4186987;28;20723;-81
2023/06/19 00:54:40;;;;;;;9.70;8.80;;;;;;;23.39;72.07;97731.28;4202162;28;21045;-81
2023/06/19 00:56:43;;;;;;;11.53;10.43;;;;;;;23.35;71.71;97727.38;4190205;28;20628;-81
2023/06/19 00:58:46;;;;;;;10.97;9.80;;;;;;;23.31;71.03;97726.91;4185024;28;20780;-81
2023/06/19 01:00:50;;;;;;;11.20;10.13;;;;;;;23.32;71.11;97741.88;4187814;28;21228;-81
2023/06/19 01:03:10;;;;;;;11.47;9.70;;;;;;;23.31;71.09;97737.56;4179024;28;20860;-80
2023/06/19 01:05:15;;;;;;;10.77;9.50;;;;;;;23.31;71.21;97737.56;4188456;28;20646;-81
2023/06/19 01:07:22;;;;;;;10.30;9.30;;;;;;;23.33;71.79;97742.69;4184440;28;20672;-80
2023/06/19 01:09:30;;;;;;;11.17;9.97;;;;;;;23.32;70.25;97738.41;4174204;28;20724;-81
2023/06/19 01:11:45;;;;;;;11.40;10.13;;;;;;;23.30;71.06;97746.56;4196121;28;20622;-81
2023/06/19 01:13:53;;;;;;;9.53;8.47;;;;;;;23.27;70.86;97738.97;4191526;28;20653;-81
2023/06/19 01:15:57;;;;;;;11.10;9.93;;;;;;;23.22;70.87;97744.03;4180919;28;20662;-81
2023/06/19 01:18:01;;;;;;;11.53;9.37;;;;;;;23.20;71.61;97742.59;4174920;28;20664;-81
2023/06/19 01:20:10;;;;;;;10.13;9.13;;;;;;;23.19;72.57;97748.09;4186960;28;20621;-81
2023/06/19 01:22:25;;;;;;;11.07;9.97;;;;;;;23.16;72.80;97740.50;4173303;28;20629;-81
2023/06/19 01:24:28;;;;;;;10.60;9.50;;;;;;;23.14;72.84;97746.00;4188519;28;20639;-80
2023/06/19 01:26:31;;;;;;;11.80;10.60;;;;;;;23.13;72.40;97752.34;4178817;28;21333;-81
2023/06/19 01:28:36;;;;;;;11.00;9.90;;;;;;;23.14;72.71;97755.81;4178179;28;21216;-81
2023/06/19 01:30:41;;;;;;;11.33;10.17;;;;;;;23.10;72.26;97771.34;4195226;28;20753;-81
2023/06/19 01:32:50;;;;;;;10.77;9.67;;;;;;;23.09;72.30;97782.19;4175507;28;21198;-81
2023/06/19 01:34:55;;;;;;;10.70;9.70;;;;;;;23.06;71.48;97802.00;4174325;28;20646;-81
2023/06/19 01:36:59;;;;;;;11.07;9.90;;;;;;;23.00;71.33;97820.56;4190915;28;21211;-82
2023/06/19 01:39:04;;;;;;;11.10;10.00;;;;;;;22.96;71.27;97838.75;4197732;28;20687;-83
2023/06/19 01:41:08;;;;;;;11.07;9.97;;;;;;;22.92;71.88;97837.44;4180419;28;20631;-83
2023/06/19 01:43:11;;;;;;;10.83;9.73;;;;;;;22.86;71.33;97832.06;4177702;28;20726;-83
2023/06/19 01:45:15;;;;;;;9.73;8.83;;;;;;;22.80;71.14;97838.13;4197578;28;20644;-83
2023/06/19 01:47:19;;;;;;;11.50;9.10;;;;;;;22.78;71.42;97837.50;4194787;28;20642;-83
2023/06/19 01:49:23;;;;;;;10.50;9.40;;;;;;;22.78;70.21;97834.84;4178739;28;20638;-83
2023/06/19 01:51:26;;;;;;;11.60;10.40;;;;;;;22.78;70.92;97840.16;4173554;28;20691;-83
2023/06/19 01:53:31;;;;;;;10.80;9.70;;;;;;;22.76;70.90;97844.81;4178765;28;20646;-83
2023/06/19 01:55:35;;;;;;;10.70;9.60;;;;;;;22.74;71.72;97834.34;4190465;28;20649;-83
2023/06/19 01:57:38;;;;;;;10.23;9.23;;;;;;;22.70;71.91;97837.56;4192091;28;20632;-83
2023/06/19 01:59:42;;;;;;;10.80;9.80;;;;;;;22.65;71.95;97839.97;4192321;28;21122;-83
2023/06/19 02:01:45;;;;;;;10.43;9.33;;;;;;;22.64;72.04;97835.66;4197332;28;20669;-83
2023/06/19 02:03:48;;;;;;;11.17;10.00;;;;;;;22.64;71.61;97837.50;4192015;28;20666;-82
2023/06/19 02:05:51;;;;;;;10.63;9.53;;;;;;;22.68;70.63;97844.09;4184165;28;20656;-83
2023/06/19 02:07:55;;;;;;;10.30;9.30;;;;;;;22.72;71.03;97851.53;4179059;28;20670;-83
2023/06/19 02:09:58;;;;;;;10.30;9.30;;;;;;;22.72;71.06;97849.69;4191212;28;20629;-83
2023/06/19 02:12:03;;;;;;;10.70;9.60;;;;;;;22.72;71.23;97849.69;4194820;28;20642;-83
2023/06/19 02:14:07;;;;;;;12.73;9.87;;;;;;;22.73;71.77;97854.00;4194362;28;20699;-83
2023/06/19 02:16:10;;;;;;;9.60;8.53;;;;;;;22.75;71.39;97862.63;4192761;28;21313;-83
2023/06/19 02:18:13;;;;;;;9.20;8.30;;;;;;;22.78;71.35;97856.94;4193552;28;20747;-82
2023/06/19 02:20:17;;;;;;;8.73;7.80;;;;;;;22.81;70.47;97861.06;4175870;28;20681;-83
2023/06/19 02:22:20;;;;;;;8.80;7.90;;;;;;;22.84;70.72;97861.50;4189127;28;21262;-83
2023/06/19 02:24:24;;;;;;;9.60;8.60;;;;;;;22.87;70.92;97861.13;4187938;28;20632;-83
2023/06/19 02:26:29;;;;;;;8.83;7.93;;;;;;;22.86;71.36;97856.00;4177542;28;21316;-83
2023/06/19 02:28:33;;;;;;;10.10;9.10;;;;;;;22.88;71.45;97853.97;4172540;28;20690;-83
2023/06/19 02:30:36;;;;;;;10.00;8.90;;;;;;;22.89;71.23;97847.66;4173700;28;20633;-83
2023/06/19 02:32:40;;;;;;;9.33;8.43;;;;;;;22.90;70.18;97847.47;4199008;28;20651;-83
2023/06/19 02:34:43;;;;;;;8.30;7.37;;;;;;;22.93;70.15;97844.47;4173581;28;20635;-83
2023/06/19 02:36:47;;;;;;;8.60;7.80;;;;;;;22.97;69.54;97842.25;4198912;28;20626;-83
2023/06/19 02:38:50;;;;;;;8.67;7.87;;;;;;;22.99;69.71;97843.72;4174308;28;20631;-83
2023/06/19 02:41:18;;;;;;;9.30;8.30;;;;;;;23.01;70.67;97841.69;4179406;28;20632;-83
2023/06/19 02:43:21;;;;;;;9.90;7.67;;;;;;;23.00;70.69;97839.19;4188347;28;21189;-83
2023/06/19 02:45:25;;;;;;;8.07;7.27;;;;;;;22.99;70.60;97838.38;4202869;28;20671;-83
2023/06/19 02:47:29;;;;;;;8.50;7.57;;;;;;;22.99;70.11;97840.25;4204419;28;20711;-83
2023/06/19 02:49:32;;;;;;;8.03;7.27;;;;;;;23.01;70.05;97843.53;4189077;28;20629;-83
2023/06/19 02:51:35;;;;;;;8.33;7.53;;;;;;;23.02;69.89;97837.16;4184837;28;21675;-83
2023/06/19 02:53:38;;;;;;;8.20;7.30;;;;;;;23.03;69.81;97844.16;4188830;28;21099;-83
2023/06/19 02:55:44;;;;;;;9.47;6.77;;;;;;;23.05;69.63;97842.13;4201576;28;20654;-83
2023/06/19 02:57:47;;;;;;;7.00;6.30;;;;;;;23.07;69.58;97834.78;4197028;28;20667;-83
2023/06/19 02:59:50;;;;;;;7.87;7.07;;;;;;;23.07;69.69;97840.13;4190520;28;21232;-83
2023/06/19 03:01:55;;;;;;;8.60;7.70;;;;;;;23.05;70.62;97832.31;4187172;28;21108;-83
2023/06/19 03:03:58;;;;;;;7.83;7.13;;;;;;;23.02;70.38;97839.84;4193258;28;21034;-83
2023/06/19 03:06:01;;;;;;;7.93;6.90;;;;;;;22.97;70.15;97837.75;4180206;28;21054;-83
2023/06/19 03:08:05;;;;;;;8.17;6.63;;;;;;;22.97;70.71;97839.56;4196098;28;20695;-83
2023/06/19 03:10:09;;;;;;;7.53;6.73;;;;;;;22.97;70.99;97845.75;4170094;28;20673;-83
2023/06/19 03:12:13;;;;;;;6.80;6.10;;;;;;;22.99;71.21;97842.91;4191132;28;20755;-83
2023/06/19 03:14:16;;;;;;;6.80;6.10;;;;;;;23.01;72.36;97848.84;4176753;28;20696;-83
2023/06/19 03:16:20;;;;;;;6.90;6.20;;;;;;;23.01;72.31;97844.34;4191981;28;20702;-83
2023/06/19 03:18:26;;;;;;;7.93;6.57;;;;;;;23.03;71.61;97858.28;4182261;28;21008;-83
2023/06/19 03:20:29;;;;;;;7.63;6.37;;;;;;;23.06;71.56;97862.41;4185627;28;21224;-83
2023/06/19 03:22:33;;;;;;;6.20;5.60;;;;;;;23.07;71.53;97848.91;4176889;28;20716;-83
2023/06/19 03:24:36;;;;;;;6.93;5.80;;;;;;;23.09;71.15;97854.88;4189725;28;20678;-83
2023/06/19 03:26:51;;;;;;;6.70;5.97;;;;;;;23.10;72.80;97853.84;4188073;28;20621;-83
2023/06/19 03:28:54;;;;;;;7.07;6.00;;;;;;;23.10;72.02;97855.72;4175084;28;20687;-83
2023/06/19 03:31:00;;;;;;;6.47;5.80;;;;;;;23.10;71.89;97869.81;4188603;28;20730;-83
2023/06/19 03:33:06;;;;;;;6.67;6.03;;;;;;;23.10;71.91;97871.69;4191647;28;21304;-83
2023/06/19 03:35:17;;;;;;;7.00;5.90;;;;;;;23.10;72.41;97871.69;4178139;28;20634;-83
2023/06/19 03:37:21;;;;;;;7.97;6.10;;;;;;;23.11;71.51;97878.63;4187833;28;22474;-83
2023/06/19 03:39:25;;;;;;;9.30;7.00;;;;;;;23.11;71.68;97878.63;4169053;28;21211;-83
2023/06/19 03:41:33;;;;;;;7.60;6.77;;;;;;;23.06;71.44;97884.50;4190746;28;20665;-83
2023/06/19 03:43:36;;;;;;;7.03;6.27;;;;;;;23.04;71.83;97885.72;4184740;28;20641;-83
2023/06/19 03:45:39;;;;;;;7.20;6.50;;;;;;;23.00;72.86;97879.13;4176329;28;20668;-83
2023/06/19 03:47:43;;;;;;;8.23;6.67;;;;;;;22.96;73.19;97886.66;4181195;28;21384;-83
2023/06/19 03:49:46;;;;;;;7.00;6.30;;;;;;;22.94;73.65;97883.38;4193244;28;20641;-83
2023/06/19 03:51:50;;;;;;;9.73;6.90;;;;;;;22.91;73.49;97889.03;4174618;28;20683;-83
2023/06/19 03:53:54;;;;;;;7.27;6.53;;;;;;;22.90;74.45;97898.00;4172597;28;20683;-83
2023/06/19 03:55:57;;;;;;;7.73;6.93;;;;;;;22.89;75.03;97906.19;4194377;28;20642;-83
2023/06/19 03:58:00;;;;;;;7.97;7.07;;;;;;;22.86;74.78;97896.72;4185707;28;20642;-83
2023/06/19 04:00:07;;;;;;;8.30;7.30;;;;;;;22.83;76.00;97896.28;4194673;28;20625;-83
2023/06/19 04:02:14;;;;;;;7.50;6.70;;;;;;;22.81;76.17;97903.63;4195888;28;20682;-83
2023/06/19 04:04:18;;;;;;;7.60;6.80;;;;;;;22.79;76.21;97911.78;4199178;28;20678;-81
2023/06/19 04:06:22;;;;;;;7.50;6.40;;;;;;;22.80;76.32;97910.75;4185353;28;20761;-81
2023/06/19 04:08:27;;;;;;;7.33;6.63;;;;;;;22.80;75.63;97923.25;4198421;28;20637;-81
2023/06/19 04:10:30;;;;;;;7.83;6.63;;;;;;;22.82;75.52;97913.25;4186757;28;20687;-81
2023/06/19 04:12:41;;;;;;;9.57;7.20;;;;;;;22.83;74.80;97917.56;4196431;28;20722;-81
2023/06/19 04:14:46;;;;;;;7.53;6.40;;;;;;;22.83;73.56;97917.56;4199965;28;20633;-81
2023/06/19 04:16:49;;;;;;;7.00;6.30;;;;;;;22.85;73.37;97916.38;4185770;28;20639;-81
2023/06/19 04:18:52;;;;;;;8.63;6.33;;;;;;;22.86;73.57;97917.19;4194813;28;20624;-80
2023/06/19 04:20:56;;;;;;;8.27;7.37;;;;;;;22.86;73.38;97918.00;4181395;28;20687;-81
2023/06/19 04:22:59;;;;;;;7.77;6.90;;;;;;;22.86;73.53;97917.19;4192926;28;22017;-81
2023/06/19 04:25:05;;;;;;;7.93;6.87;;;;;;;22.86;74.88;97917.19;4195418;28;20685;-81
2023/06/19 04:27:09;;;;;;;7.30;6.60;;;;;;;22.86;76.71;97919.84;4195381;28;20650;-81
2023/06/19 04:29:16;;;;;;;7.10;6.23;;;;;;;22.87;76.46;97921.50;4197656;28;20637;-81
2023/06/19 04:31:20;;;;;;;6.50;5.80;;;;;;;22.91;75.63;97931.59;4179212;28;20682;-81
2023/06/19 04:33:24;;;;;;;6.40;5.80;;;;;;;22.95;76.51;97924.09;4186110;28;21388;-81
2023/06/19 04:35:28;;;;;;;7.20;6.50;;;;;;;22.99;75.31;97936.84;4197814;28;20629;-81
2023/06/19 04:37:31;;;;;;;7.03;5.83;;;;;;;23.04;75.93;97931.78;4197929;28;20636;-81
2023/06/19 04:39:35;;;;;;;8.50;6.30;;;;;;;23.14;75.47;97942.13;4192520;28;20626;-83
2023/06/19 04:41:41;;;;;;;6.30;5.33;;;;;;;23.21;74.79;97950.03;4197091;28;20632;-83
2023/06/19 04:43:44;;;;;;;6.77;6.00;;;;;;;23.28;74.95;97945.59;4183688;28;20637;-83
2023/06/19 04:45:47;;;;;;;9.73;6.63;;;;;;;23.35;73.79;97949.19;4178733;28;20665;-83
2023/06/19 04:47:50;;;;;;;6.77;6.17;;;;;;;23.41;74.51;97948.44;4199301;28;20743;-86
2023/06/19 04:49:56;;;;;;;6.63;5.97;;;;;;;23.47;73.78;97955.69;4202502;28;20694;-86
2023/06/19 04:51:59;;;;;;;7.23;6.43;;;;;;;23.52;73.64;97955.94;4200962;28;20644;-86
2023/06/19 04:54:03;;;;;;;6.57;5.90;;;;;;;23.56;74.32;97956.38;4189607;28;21065;-86
2023/06/19 04:56:08;;;;;;;6.30;5.70;;;;;;;23.60;74.47;97961.13;4196602;28;20623;-86
2023/06/19 04:58:16;;;;;;;9.90;6.17;;;;;;;23.60;74.92;97969.13;4201556;28;20632;-84
2023/06/19 05:00:21;;;;;;;6.80;6.10;;;;;;;23.58;75.49;97973.81;4199060;28;20646;-85
2023/06/19 05:02:25;;;;;;;7.53;6.60;;;;;;;23.53;75.35;97967.41;4195359;28;20632;-86
2023/06/19 05:04:30;;;;;;;8.60;6.73;;;;;;;23.54;74.88;97969.06;4183850;28;20618;-86
2023/06/19 05:06:33;;;;;;;6.97;6.27;;;;;;;23.58;74.23;97973.81;4200360;28;21323;-83
2023/06/19 05:08:36;;;;;;;8.43;5.97;;;;;;;23.62;74.84;97972.44;4200373;28;20626;-83
2023/06/19 05:10:39;;;;;;;6.80;6.10;;;;;;;23.67;74.19;97969.25;4199409;28;20637;-83
2023/06/19 05:12:42;;;;;;;7.07;6.10;;;;;;;23.69;73.45;97965.38;4194166;28;21260;-83
2023/06/19 05:14:47;;;;;;;7.20;6.50;;;;;;;23.69;73.34;97973.34;4202403;28;21238;-83
2023/06/19 05:16:50;;;;;;;7.40;6.13;;;;;;;23.73;75.61;97978.13;4201104;28;20667;-83
2023/06/19 05:18:54;;;;;;;6.80;6.20;;;;;;;23.78;76.16;97982.88;4201150;28;20683;-86
2023/06/19 05:20:57;;;;;;;7.63;5.97;;;;;;;23.85;74.80;97973.13;4193130;28;20631;-86
2023/06/19 05:23:01;;;;;;;8.00;6.70;;;;;;;23.94;74.78;97970.16;4184397;28;20672;-83
2023/06/19 05:25:05;;;;;;;7.00;5.90;;;;;;;24.04;73.84;97968.00;4201411;28;20703;-86
2023/06/19 05:27:08;;;;;;;7.50;6.43;;;;;;;24.13;74.26;97971.34;4192172;28;21030;-86
2023/06/19 05:29:12;;;;;;;6.33;5.50;;;;;;;24.25;75.59;97968.81;4197041;28;20640;-83
2023/06/19 05:31:17;;;;;;;6.23;5.63;;;;;;;24.34;73.72;97973.00;4163267;28;21326;-83
2023/06/19 05:33:23;;;;;;;8.43;5.20;;;;;;;24.45;73.17;97975.16;4185696;28;20756;-83
2023/06/19 05:35:27;;;;;;;5.47;4.97;;;;;;;24.62;72.63;97983.69;4182467;28;20627;-83
2023/06/19 05:37:30;;;;;;;6.40;5.47;;;;;;;24.85;73.67;97975.25;4196477;28;20662;-84
2023/06/19 05:39:37;;;;;;;4.27;3.73;;;;;;;25.10;71.60;97981.78;4185079;28;20623;-83
2023/06/19 05:41:41;;;;;;;5.20;4.20;;;;;;;25.38;71.16;97980.69;4189153;28;20765;-83
2023/06/19 05:43:44;;;;;;;5.90;4.03;;;;;;;25.62;71.48;97982.84;4183719;28;21013;-84
2023/06/19 05:45:47;;;;;;;5.03;3.87;;;;;;;25.86;70.87;97987.63;4193168;28;20634;-83
2023/06/19 05:47:52;;;;;;;4.50;3.87;;;;;;;26.10;70.79;97999.44;4199800;28;20634;-83
2023/06/19 05:49:55;;;;;;;4.40;3.90;;;;;;;26.19;69.66;97997.38;4197674;28;20632;-83
2023/06/19 05:51:58;;;;;;;4.07;3.30;;;;;;;26.36;69.05;97993.34;4195674;28;20631;-83
2023/06/19 05:54:03;;;;;;;4.80;3.40;;;;;;;26.56;68.71;98001.13;4187780;28;20652;-84
2023/06/19 05:56:06;;;;;;;3.20;2.70;;;;;;;26.81;68.50;97999.50;4190730;28;20682;-84
2023/06/19 05:58:10;;;;;;;3.90;3.23;;;;;;;27.14;67.45;98001.09;4196545;28;20630;-84
2023/06/19 06:00:15;;;;;;;3.90;3.07;;;;;;;27.40;67.24;98006.38;4185027;28;20624;-84
2023/06/19 06:02:18;;;;;;;4.00;3.13;;;;;;;27.53;66.27;98006.38;4194338;28;20631;-84
2023/06/19 06:04:23;;;;;;;3.43;3.03;;;;;;;27.57;66.12;98008.44;4196349;28;20625;-83
2023/06/19 06:06:27;;;;;;;3.63;2.60;;;;;;;27.66;66.13;98014.34;4200519;28;20652;-84
2023/06/19 06:08:31;;;;;;;3.27;2.70;;;;;;;27.77;65.85;98013.69;4199623;28;21090;-83
2023/06/19 06:10:34;;;;;;;4.20;3.40;;;;;;;27.79;65.46;98012.44;4202444;28;20629;-84
2023/06/19 06:12:37;;;;;;;3.53;3.00;;;;;;;27.71;64.18;98010.00;4187440;28;20729;-83
2023/06/19 06:14:41;;;;;;;3.30;3.00;;;;;;;27.60;64.00;98004.47;4201110;28;20655;-84
2023/06/19 06:16:46;;;;;;;3.27;2.70;;;;;;;27.45;65.51;98008.44;4200830;28;20628;-83
2023/06/19 06:18:49;;;;;;;3.90;2.73;;;;;;;27.28;65.25;97999.22;4182347;28;20626;-83
2023/06/19 06:20:54;;;;;;;3.53;3.00;;;;;;;27.12;64.55;97997.81;4196139;28;20688;-83
2023/06/19 06:22:57;;;;;;;3.60;3.10;;;;;;;27.14;66.81;97994.94;4201190;28;20625;-83
2023/06/19 06:25:00;;;;;;;3.90;3.50;;;;;;;27.13;65.98;98001.31;4200163;28;20640;-83
2023/06/19 06:27:05;;;;;;;3.77;3.20;;;;;;;27.15;66.73;98001.91;4201550;28;20655;-83
2023/06/19 06:29:08;;;;;;;3.60;2.90;;;;;;;27.16;67.32;98004.38;4201356;28;20687;-83
2023/06/19 06:31:11;;;;;;;3.67;3.20;;;;;;;27.08;66.36;98001.13;4189434;28;20626;-83
2023/06/19 06:33:14;;;;;;;3.73;3.33;;;;;;;26.94;66.47;98004.03;4203285;28;20747;-83
2023/06/19 06:35:17;;;;;;;5.07;3.77;;;;;;;26.90;66.55;97997.44;4198724;28;20665;-83
2023/06/19 06:37:23;;;;;;;3.47;3.17;;;;;;;26.83;67.10;97999.28;4197759;28;20634;-85
2023/06/19 06:39:26;;;;;;;5.27;4.43;;;;;;;26.73;66.67;97998.88;4198601;28;21188;-83
2023/06/19 06:41:29;;;;;;;5.23;3.33;;;;;;;26.67;67.30;98002.38;4194120;28;20663;-83
2023/06/19 06:43:32;;;;;;;3.57;3.20;;;;;;;26.69;67.12;97989.63;4192279;28;20639;-83
2023/06/19 06:45:37;;;;;;;4.70;3.30;;;;;;;26.76;67.18;98006.47;4195399;28;20639;-84
2023/06/19 06:47:40;;;;;;;3.77;3.30;;;;;;;26.80;67.52;98011.22;4209073;28;21003;-83
2023/06/19 06:49:44;;;;;;;3.40;3.00;;;;;;;26.77;67.16;98016.16;4193702;28;20681;-82
2023/06/19 06:51:47;;;;;;;4.43;3.70;;;;;;;26.74;67.07;98013.91;4195750;28;21033;-85
2023/06/19 06:53:52;;;;;;;3.23;2.87;;;;;;;26.71;66.91;98015.13;4196091;28;20826;-84
2023/06/19 06:55:56;;;;;;;3.97;3.13;;;;;;;26.71;67.24;98023.16;4195268;28;20615;-85
2023/06/19 06:57:59;;;;;;;4.90;4.30;;;;;;;26.74;66.93;98036.13;4201918;28;20627;-85
2023/06/19 07:00:03;;;;;;;3.53;3.20;;;;;;;26.78;67.02;98032.03;4196426;28;20631;-85
2023/06/19 07:02:06;;;;;;;3.90;3.50;;;;;;;26.83;67.54;98026.06;4199360;28;21092;-84
2023/06/19 07:04:10;;;;;;;5.97;5.13;;;;;;;26.92;67.64;98033.69;4186636;28;20682;-82
2023/06/19 07:06:13;;;;;;;15.77;13.60;;;;;;;27.09;66.62;98040.25;4191440;28;20758;-82
2023/06/19 07:08:17;;;;;;;6.20;5.37;;;;;;;27.36;67.21;98042.66;4203487;28;20719;-81
2023/06/19 07:10:21;;;;;;;6.77;4.17;;;;;;;27.73;65.32;98058.06;4186029;28;20630;-82
2023/06/19 07:12:26;;;;;;;5.00;4.17;;;;;;;28.04;64.70;98054.41;4202161;28;20719;-82
2023/06/19 07:14:29;;;;;;;3.93;3.53;;;;;;;28.25;65.19;98054.13;4197274;28;20655;-82
2023/06/19 07:16:32;;;;;;;5.90;3.53;;;;;;;28.56;65.25;98056.78;4194501;28;20638;-82
2023/06/19 07:18:38;;;;;;;4.30;3.60;;;;;;;28.89;62.70;98049.34;4185693;28;21231;-82
2023/06/19 07:20:41;;;;;;;4.40;3.80;;;;;;;29.13;62.58;98055.50;4192808;28;20720;-82
2023/06/19 07:22:45;;;;;;;3.43;3.13;;;;;;;29.35;62.17;98051.41;4200249;28;21340;-82
2023/06/19 07:24:48;;;;;;;3.57;3.27;;;;;;;29.52;60.95;98057.81;4200029;28;20980;-82
2023/06/19 07:26:53;;;;;;;3.70;3.07;;;;;;;29.70;60.71;98055.94;4193080;28;20658;-82
2023/06/19 07:28:58;;;;;;;5.90;3.87;;;;;;;29.95;61.47;98065.59;4204748;28;20639;-82
2023/06/19 07:31:01;;;;;;;3.40;3.10;;;;;;;30.24;61.25;98067.50;4197868;28;20681;-82
2023/06/19 07:33:04;;;;;;;3.77;3.30;;;;;;;30.43;60.91;98063.72;4196403;28;20743;-82
2023/06/19 07:35:08;;;;;;;3.50;2.90;;;;;;;30.49;59.78;98063.63;4200916;28;21261;-82
2023/06/19 07:37:17;;;;;;;3.33;2.93;;;;;;;30.48;59.36;98051.22;4198105;28;21186;-82
2023/06/19 07:39:20;;;;;;;4.00;3.53;;;;;;;30.74;59.14;98052.69;4200412;28;20634;-82
2023/06/19 07:41:23;;;;;;;3.93;3.17;;;;;;;31.02;60.34;98053.69;4197543;28;20642;-82
2023/06/19 07:43:28;;;;;;;3.80;3.40;;;;;;;31.37;58.30;98052.63;4188804;28;20625;-82
2023/06/19 07:45:31;;;;;;;3.37;3.00;;;;;;;31.54;57.69;98053.56;4203478;28;21189;-82
2023/06/19 07:47:34;;;;;;;3.33;2.80;;;;;;;31.55;57.89;98049.81;4199006;28;20678;-82
2023/06/19 07:49:37;;;;;;;4.20;2.93;;;;;;;31.79;56.97;98056.81;4199806;28;20628;-83
2023/06/19 07:51:40;;;;;;;3.93;3.30;;;;;;;32.00;57.99;98057.84;4197982;28;20624;-83
2023/06/19 07:53:44;;;;;;;5.03;3.10;;;;;;;32.31;56.57;98061.94;4188769;28;20624;-83
2023/06/19 07:55:47;;;;;;;7.67;4.83;;;;;;;32.44;56.85;98068.72;4200670;28;20694;-83
2023/06/19 07:57:52;;;;;;;5.03;3.37;;;;;;;32.10;56.32;98049.13;4196540;28;20650;-83
2023/06/19 07:59:56;;;;;;;3.93;3.17;;;;;;;31.72;57.56;98054.25;4200168;28;20626;-84
2023/06/19 08:01:59;;;;;;;4.23;3.83;;;;;;;31.52;57.95;98048.41;4202891;28;21233;-83
2023/06/19 08:04:03;;;;;;;7.53;3.40;;;;;;;31.23;58.72;98055.78;4185654;28;20673;-83
2023/06/19 08:06:06;;;;;;;3.93;3.27;;;;;;;31.07;58.78;98045.72;4187983;28;21099;-83
2023/06/19 08:08:09;;;;;;;5.03;3.53;;;;;;;30.96;58.08;98046.53;4180473;28;20663;-83
2023/06/19 08:10:12;;;;;;;21.77;6.67;;;;;;;30.67;59.52;98047.41;4184002;28;20655;-83
2023/06/19 08:12:17;;;;;;;4.67;3.73;;;;;;;30.41;59.86;98040.78;4184800;28;21159;-84
2023/06/19 08:14:20;;;;;;;4.30;3.47;;;;;;;30.31;60.13;98044.00;4181774;28;21231;-83
2023/06/19 08:16:26;;;;;;;3.73;3.33;;;;;;;30.21;60.00;98038.34;4195274;28;20652;-83
2023/06/19 08:18:29;;;;;;;3.13;2.83;;;;;;;30.20;60.13;98047.44;4203478;28;20661;-84
2023/06/19 08:20:32;;;;;;;3.53;2.87;;;;;;;30.26;60.24;98043.84;4198619;28;20631;-83
2023/06/19 08:22:35;;;;;;;3.70;3.27;;;;;;;30.37;60.42;98048.50;4198136;28;20713;-84
2023/06/19 08:24:39;;;;;;;2.93;2.60;;;;;;;30.45;60.27;98050.88;4197818;28;20717;-83
2023/06/19 08:26:43;;;;;;;3.23;2.87;;;;;;;30.58;60.32;98050.66;4199317;28;21010;-83
2023/06/19 08:28:46;;;;;;;3.53;2.50;;;;;;;30.60;59.24;98043.16;4196670;28;21213;-84
2023/06/19 08:30:49;;;;;;;3.80;2.60;;;;;;;30.88;58.75;98054.13;4202120;28;20729;-84
2023/06/19 08:32:53;;;;;;;2.90;2.60;;;;;;;31.23;58.50;98051.25;4194484;28;21361;-83
2023/06/19 08:34:57;;;;;;;16.03;6.83;;;;;;;31.57;58.31;98050.41;4197713;28;20678;-84
2023/06/19 08:37:00;;;;;;;11.87;4.50;;;;;;;31.86;58.12;98052.94;4196697;28;20616;-84
2023/06/19 08:39:03;;;;;;;4.63;2.90;;;;;;;32.05;56.14;98049.03;4195273;28;20666;-84
2023/06/19 08:41:07;;;;;;;4.27;2.33;;;;;;;32.18;55.29;98046.84;4196891;28;21347;-84
2023/06/19 08:43:12;;;;;;;2.90;2.60;;;;;;;32.31;55.41;98049.28;4198496;28;21206;-84
2023/06/19 08:45:18;;;;;;;2.77;2.50;;;;;;;32.36;55.07;98054.78;4199463;28;21535;-84
2023/06/19 08:47:21;;;;;;;4.77;3.27;;;;;;;32.07;56.24;98055.00;4180868;28;21235;-84
2023/06/19 08:49:26;;;;;;;3.27;2.90;;;;;;;32.13;56.32;98048.63;4198895;28;20682;-84
2023/06/19 08:51:30;;;;;;;3.20;2.90;;;;;;;32.24;54.94;98037.78;4202028;28;20662;-84
2023/06/19 08:53:37;;;;;;;4.73;2.73;;;;;;;32.25;55.88;98042.13;4194957;28;20620;-84
2023/06/19 08:55:42;;;;;;;4.07;3.67;;;;;;;32.50;55.48;98039.91;4188522;28;20660;-84
2023/06/19 08:57:45;;;;;;;3.60;2.70;;;;;;;32.52;54.34;98035.91;4194749;28;20930;-84
2023/06/19 08:59:51;;;;;;;2.80;2.60;;;;;;;32.61;54.49;98041.72;4187684;28;20628;-84
2023/06/19 09:01:55;;;;;;;3.70;2.57;;;;;;;32.72;56.13;98038.97;4198820;28;20709;-84
2023/06/19 09:04:09;;;;;;;3.73;2.60;;;;;;;32.60;54.15;98046.31;4185529;28;20620;-84
2023/06/19 09:06:17;;;;;;;3.10;2.80;;;;;;;32.58;54.68;98042.22;4193798;28;21227;-84
2023/06/19 09:08:22;;;;;;;3.00;2.60;;;;;;;32.27;54.65;98031.91;4198345;28;21172;-84
2023/06/19 09:10:28;;;;;;;2.90;2.60;;;;;;;32.36;54.64;98027.75;4200615;28;20627;-84
2023/06/19 09:12:33;;;;;;;2.80;2.47;;;;;;;32.44;55.19;98036.28;4200640;28;20706;-84
2023/06/19 09:14:39;;;;;;;3.37;2.90;;;;;;;32.55;54.97;98037.28;4194903;28;20720;-84
2023/06/19 09:16:43;;;;;;;4.17;3.67;;;;;;;32.54;54.92;98035.69;4196629;28;20743;-84
2023/06/19 09:18:47;;;;;;;3.60;2.90;;;;;;;32.28;54.07;98035.41;4196164;28;20671;-84
2023/06/19 09:20:54;;;;;;;3.50;3.20;;;;;;;32.19;54.56;98024.19;4207045;28;20623;-84
2023/06/19 09:22:59;;;;;;;3.50;3.20;;;;;;;32.06;54.90;98024.47;4204471;28;20626;-84
2023/06/19 09:25:03;;;;;;;3.73;2.90;;;;;;;31.94;54.57;98022.88;4188907;28;21247;-84
2023/06/19 09:27:09;;;;;;;4.93;3.30;;;;;;;31.80;56.07;98026.06;4198425;28;20624;-84
2023/06/19 09:29:13;;;;;;;3.40;2.87;;;;;;;31.85;56.36;98032.38;4197936;28;20645;-84
2023/06/19 09:31:18;;;;;;;3.20;2.90;;;;;;;32.09;57.04;98031.28;4193818;28;20761;-84
2023/06/19 09:33:21;;;;;;;2.70;2.40;;;;;;;32.33;56.54;98030.94;4194999;28;20654;-84
2023/06/19 09:35:25;;;;;;;3.07;2.77;;;;;;;32.49;55.95;98030.16;4184997;28;20650;-84
2023/06/19 09:37:33;;;;;;;3.83;2.67;;;;;;;32.63;55.57;98035.03;4199384;28;21059;-84
2023/06/19 09:39:40;;;;;;;3.17;2.67;;;;;;;32.72;54.96;98038.16;4199974;28;21524;-84
2023/06/19 09:41:47;;;;;;;3.23;2.93;;;;;;;32.84;54.86;98026.19;4202893;28;20638;-84
2023/06/19 09:43:52;;;;;;;4.90;3.20;;;;;;;32.87;54.95;98018.41;4181133;28;20633;-84